createdAt,value
2023-03-20T00:01:04.130Z,75.66
2023-03-20T00:03:37.302Z,75.78
2023-03-20T00:06:14.362Z,76.05
2023-03-20T00:08:47.940Z,75.78
2023-03-20T00:11:30.611Z,76.24
2023-03-20T00:14:04.374Z,75.68
2023-03-20T00:16:38.274Z,76.50
2023-03-20T00:19:15.614Z,75.72
2023-03-20T00:21:48.620Z,75.79
2023-03-20T00:24:21.605Z,76.47
2023-03-20T00:26:55.970Z,76.06
2023-03-20T00:29:31.036Z,76.62
2023-03-20T00:32:03.815Z,76.26
2023-03-20T00:34:36.552Z,76.58
2023-03-20T00:37:09.942Z,76.53
2023-03-20T00:39:42.799Z,76.65
2023-03-20T00:42:21.927Z,76.97
2023-03-20T00:44:55.792Z,76.29
2023-03-20T00:47:28.657Z,76.65
2023-03-20T00:50:01.460Z,76.03
2023-03-20T00:52:34.208Z,76.37
2023-03-20T00:55:07.149Z,76.22
2023-03-20T00:57:43.939Z,76.62
2023-03-20T01:00:43.769Z,76.24
2023-03-20T01:03:18.503Z,76.54
2023-03-20T01:05:51.961Z,76.55
2023-03-20T01:08:25.723Z,76.06
2023-03-20T01:10:59.633Z,76.23
2023-03-20T01:13:34.056Z,76.84
2023-03-20T01:16:07.241Z,76.01
2023-03-20T01:18:39.962Z,76.09
2023-03-20T01:21:12.866Z,76.70
2023-03-20T01:23:45.995Z,76.60
2023-03-20T01:26:23.631Z,76.64
2023-03-20T01:28:57.831Z,75.95
2023-03-20T01:31:30.853Z,76.31
2023-03-20T01:34:04.573Z,76.66
2023-03-20T01:36:38.327Z,76.05
2023-03-20T01:39:11.390Z,75.99
2023-03-20T01:41:45.415Z,76.12
2023-03-20T01:44:22.351Z,76.58
2023-03-20T01:46:55.509Z,75.97
2023-03-20T01:49:46.943Z,76.07
2023-03-20T01:52:19.716Z,76.04
2023-03-20T01:54:52.839Z,76.39
2023-03-20T01:57:26.456Z,75.93
2023-03-20T02:00:03.237Z,76.44
2023-03-20T02:02:36.142Z,76.08
2023-03-20T02:05:10.736Z,75.85
2023-03-20T02:07:47.009Z,75.57
2023-03-20T02:10:20.146Z,75.48
2023-03-20T02:12:53.305Z,75.39
2023-03-20T02:15:29.125Z,75.94
2023-03-20T02:18:01.930Z,75.98
2023-03-20T02:20:42.671Z,75.74
2023-03-20T02:23:37.677Z,76.16
2023-03-20T02:26:30.959Z,76.45
2023-03-20T02:29:17.692Z,76.00
2023-03-20T02:31:59.544Z,76.29
2023-03-20T02:34:56.218Z,76.64
2023-03-20T02:38:01.803Z,76.12
2023-03-20T02:40:41.669Z,75.86
2023-03-20T02:43:20.190Z,76.25
2023-03-20T02:45:55.754Z,76.60
2023-03-20T02:48:33.619Z,76.84
2023-03-20T02:51:11.322Z,76.64
2023-03-20T02:53:50.184Z,76.24
2023-03-20T02:56:28.342Z,76.95
2023-03-20T02:59:03.668Z,76.54
2023-03-20T03:01:40.987Z,76.46
2023-03-20T03:04:17.803Z,77.01
2023-03-20T03:06:55.885Z,76.29
2023-03-20T03:09:31.694Z,76.36
2023-03-20T03:12:07.419Z,76.89
2023-03-20T03:14:42.381Z,76.46
2023-03-20T03:17:16.683Z,76.29
2023-03-20T03:19:50.995Z,75.98
2023-03-20T03:22:24.457Z,76.21
2023-03-20T03:24:57.241Z,75.79
2023-03-20T03:27:35.720Z,76.07
2023-03-20T03:30:11.716Z,76.26
2023-03-20T03:32:46.786Z,76.20
2023-03-20T03:35:21.365Z,76.44
2023-03-20T03:37:58.581Z,76.37
2023-03-20T03:40:35.516Z,76.32
2023-03-20T03:43:13.435Z,76.20
2023-03-20T03:45:49.406Z,75.89
2023-03-20T03:48:24.502Z,76.41
2023-03-20T03:50:59.527Z,76.61
2023-03-20T03:53:33.654Z,76.27
2023-03-20T03:56:07.963Z,76.44
2023-03-20T03:58:44.091Z,75.74
2023-03-20T04:01:18.206Z,75.97
2023-03-20T04:03:53.678Z,76.64
2023-03-20T04:06:27.414Z,76.34
2023-03-20T04:09:00.360Z,76.43
2023-03-20T04:11:33.025Z,76.13
2023-03-20T04:14:07.031Z,76.47
2023-03-20T04:16:39.924Z,75.72
2023-03-20T04:19:12.669Z,75.71
2023-03-20T04:21:45.848Z,76.23
2023-03-20T04:24:18.609Z,75.83
2023-03-20T04:26:51.285Z,76.00
2023-03-20T04:29:26.364Z,75.97
2023-03-20T04:31:59.906Z,75.68
2023-03-20T04:34:33.140Z,76.11
2023-03-20T04:37:08.355Z,75.66
2023-03-20T04:39:42.588Z,76.13
2023-03-20T04:42:15.764Z,75.54
2023-03-20T04:44:49.985Z,76.40
2023-03-20T04:47:22.658Z,76.12
2023-03-20T04:49:55.424Z,75.76
2023-03-20T04:52:28.125Z,75.67
2023-03-20T04:55:00.956Z,76.60
2023-03-20T04:57:34.261Z,76.56
2023-03-20T05:00:10.088Z,76.35
2023-03-20T05:02:42.809Z,75.64
2023-03-20T05:05:15.546Z,76.01
2023-03-20T05:07:48.321Z,76.19
2023-03-20T05:10:21.080Z,75.72
2023-03-20T05:12:53.719Z,74.76
2023-03-20T05:15:27.812Z,74.91
2023-03-20T05:18:00.521Z,74.99
2023-03-20T05:20:33.917Z,74.31
2023-03-20T05:23:07.750Z,73.93
2023-03-20T05:25:40.465Z,73.86
2023-03-20T05:28:13.467Z,73.65
2023-03-20T05:30:47.682Z,73.12
2023-03-20T05:33:20.629Z,72.63
2023-03-20T05:35:53.405Z,72.56
2023-03-20T05:38:26.824Z,72.15
2023-03-20T05:40:59.830Z,71.92
2023-03-20T05:43:32.653Z,72.48
2023-03-20T05:46:07.405Z,72.49
2023-03-20T05:48:40.086Z,72.12
2023-03-20T05:51:12.825Z,72.07
2023-03-20T05:53:45.729Z,72.27
2023-03-20T05:56:18.510Z,72.56
2023-03-20T05:58:52.032Z,72.64
2023-03-20T06:01:26.180Z,72.68
2023-03-20T06:03:58.967Z,72.90
2023-03-20T06:06:31.676Z,73.07
2023-03-20T06:09:04.849Z,73.61
2023-03-20T06:11:37.864Z,73.75
2023-03-20T06:14:10.561Z,73.65
2023-03-20T06:16:44.706Z,73.76
2023-03-20T06:19:17.545Z,74.27
2023-03-20T06:21:50.872Z,74.24
2023-03-20T06:24:23.941Z,74.04
2023-03-20T06:26:56.678Z,74.65
2023-03-20T06:29:29.769Z,74.82
2023-03-20T06:32:03.889Z,75.32
2023-03-20T06:34:36.613Z,75.17
2023-03-20T06:37:09.358Z,76.23
2023-03-20T06:39:42.365Z,76.20
2023-03-20T06:42:16.294Z,76.52
2023-03-20T06:44:49.465Z,77.37
2023-03-20T06:47:23.955Z,76.72
2023-03-20T06:49:56.601Z,77.65
2023-03-20T06:52:29.437Z,77.44
2023-03-20T06:55:02.093Z,77.04
2023-03-20T06:57:35.028Z,77.51
2023-03-20T07:00:10.223Z,78.06
2023-03-20T07:02:44.898Z,77.89
2023-03-20T07:05:18.657Z,78.04
2023-03-20T07:07:51.893Z,77.30
2023-03-20T07:10:24.608Z,77.28
2023-03-20T07:12:57.327Z,77.31
2023-03-20T07:15:30.845Z,78.13
2023-03-20T07:18:05.049Z,78.28
2023-03-20T07:20:37.784Z,78.27
2023-03-20T07:23:10.748Z,77.66
2023-03-20T07:25:43.511Z,77.50
2023-03-20T07:28:16.293Z,77.14
2023-03-20T07:30:49.014Z,76.55
2023-03-20T07:33:23.245Z,76.56
2023-03-20T07:35:56.127Z,75.91
2023-03-20T07:38:29.037Z,75.83
2023-03-20T07:41:01.766Z,75.25
2023-03-20T07:43:34.536Z,75.42
2023-03-20T07:46:08.416Z,75.62
2023-03-20T07:48:42.411Z,75.63
2023-03-20T07:51:15.083Z,75.84
2023-03-20T07:53:47.757Z,75.98
2023-03-20T07:56:21.366Z,76.31
2023-03-20T07:58:54.730Z,76.33
2023-03-20T08:01:27.515Z,76.81
2023-03-20T08:04:01.796Z,77.09
2023-03-20T08:06:34.677Z,77.30
2023-03-20T08:09:08.064Z,77.49
2023-03-20T08:11:40.744Z,78.12
2023-03-20T08:14:13.560Z,78.20
2023-03-20T08:16:46.298Z,78.17
2023-03-20T08:19:20.754Z,78.34
2023-03-20T08:21:53.599Z,78.63
2023-03-20T08:24:26.347Z,78.54
2023-03-20T08:26:59.049Z,77.28
2023-03-20T08:29:31.789Z,76.86
2023-03-20T08:32:04.464Z,75.25
2023-03-20T08:34:38.811Z,75.47
2023-03-20T08:37:12.422Z,75.02
2023-03-20T08:39:45.291Z,75.98
2023-03-20T08:42:18.003Z,76.01
2023-03-20T08:44:50.959Z,75.32
2023-03-20T08:47:23.828Z,75.54
2023-03-20T08:49:57.846Z,73.95
2023-03-20T08:52:30.493Z,72.77
2023-03-20T08:55:03.260Z,72.25
2023-03-20T08:57:36.011Z,71.79
2023-03-20T09:00:09.913Z,72.49
2023-03-20T09:02:42.674Z,73.84
2023-03-20T09:05:16.812Z,74.96
2023-03-20T09:07:49.692Z,75.09
2023-03-20T09:10:22.515Z,75.81
2023-03-20T09:12:55.425Z,76.19
2023-03-20T09:15:28.454Z,76.57
2023-03-20T09:18:02.908Z,76.41
2023-03-20T09:20:38.299Z,77.59
2023-03-20T09:23:11.324Z,76.32
2023-03-20T09:25:44.226Z,74.25
2023-03-20T09:28:17.056Z,75.72
2023-03-20T09:30:49.831Z,75.02
2023-03-20T09:33:22.527Z,75.83
2023-03-20T09:35:56.780Z,75.50
2023-03-20T09:38:29.566Z,75.49
2023-03-20T09:41:03.254Z,72.18
2023-03-20T09:43:45.663Z,74.70
2023-03-20T09:46:23.470Z,74.09
2023-03-20T09:48:59.691Z,75.66
2023-03-20T09:51:37.564Z,75.32
2023-03-20T09:54:15.142Z,74.33
2023-03-20T09:56:47.930Z,73.66
2023-03-20T09:59:22.344Z,72.27
2023-03-20T10:01:56.364Z,73.92
2023-03-20T10:04:30.724Z,74.28
2023-03-20T10:07:06.049Z,74.46
2023-03-20T10:09:38.804Z,75.65
2023-03-20T10:12:26.713Z,74.78
2023-03-20T10:15:02.247Z,74.32
2023-03-20T10:17:44.150Z,71.52
2023-03-20T10:20:24.500Z,73.10
2023-03-20T10:23:00.854Z,72.54
2023-03-20T10:25:35.042Z,74.15
2023-03-20T10:28:13.102Z,74.49
2023-03-20T10:30:53.836Z,74.36
2023-03-20T10:33:31.493Z,75.20
2023-03-20T10:36:11.866Z,74.29
2023-03-20T10:38:50.471Z,74.65
2023-03-20T10:41:27.279Z,74.40
2023-03-20T10:44:01.352Z,74.54
2023-03-20T10:46:36.357Z,75.33
2023-03-20T10:49:16.822Z,75.25
2023-03-20T10:51:50.822Z,76.06
2023-03-20T10:54:29.309Z,74.48
2023-03-20T10:57:03.752Z,76.87
2023-03-20T10:59:40.969Z,76.35
2023-03-20T11:02:14.906Z,68.70
2023-03-20T11:04:47.883Z,70.01
2023-03-20T11:07:24.565Z,73.49
2023-03-20T11:10:10.584Z,70.86
2023-03-20T11:12:44.186Z,70.67
2023-03-20T11:15:21.286Z,71.56
2023-03-20T11:17:55.050Z,70.32
2023-03-20T11:20:29.364Z,71.08
2023-03-20T11:23:03.722Z,70.93
2023-03-20T11:25:39.781Z,68.54
2023-03-20T11:28:31.440Z,69.64
2023-03-20T11:31:07.003Z,70.24
2023-03-20T11:33:41.505Z,68.83
2023-03-20T11:36:22.229Z,66.42
2023-03-20T11:38:55.359Z,70.02
2023-03-20T11:41:29.974Z,70.73
2023-03-20T11:44:02.743Z,72.15
2023-03-20T11:46:35.456Z,73.43
2023-03-20T11:49:09.358Z,72.73
2023-03-20T11:51:42.175Z,73.29
2023-03-20T11:54:17.247Z,71.74
2023-03-20T11:56:55.747Z,72.83
2023-03-20T11:59:32.027Z,72.80
2023-03-20T12:02:05.927Z,72.42
2023-03-20T12:04:42.874Z,70.67
2023-03-20T12:07:18.689Z,70.47
2023-03-20T12:09:53.817Z,60.70
2023-03-20T12:12:36.004Z,66.96
2023-03-20T12:15:14.961Z,65.97
2023-03-20T12:17:49.312Z,67.09
2023-03-20T12:20:27.595Z,67.98
2023-03-20T12:23:07.585Z,67.78
2023-03-20T12:25:44.873Z,69.35
2023-03-20T12:28:22.370Z,68.90
2023-03-20T12:30:59.527Z,70.98
2023-03-20T12:33:39.886Z,69.46
2023-03-20T12:36:14.859Z,69.85
2023-03-20T12:38:47.750Z,71.18
2023-03-20T12:41:23.748Z,70.40
2023-03-20T12:44:15.142Z,72.16
2023-03-20T12:46:53.130Z,70.92
2023-03-20T12:49:36.095Z,71.84
2023-03-20T12:52:14.174Z,72.84
2023-03-20T12:54:57.803Z,73.60
2023-03-20T12:57:33.392Z,74.27
2023-03-20T13:00:21.761Z,73.80
2023-03-20T13:03:00.193Z,74.97
2023-03-20T13:05:37.074Z,73.71
2023-03-20T13:08:39.951Z,74.72
2023-03-20T13:11:17.344Z,74.54
2023-03-20T13:13:53.742Z,67.91
2023-03-20T13:16:37.014Z,68.95
2023-03-20T13:19:16.424Z,71.54
2023-03-20T13:21:55.484Z,71.62
2023-03-20T13:24:36.348Z,71.30
2023-03-20T13:27:18.769Z,72.13
2023-03-20T13:29:54.306Z,73.15
2023-03-20T13:32:35.215Z,72.18
2023-03-20T13:35:21.245Z,72.82
2023-03-20T13:37:56.331Z,73.86
2023-03-20T13:40:30.393Z,73.34
2023-03-20T13:43:09.556Z,72.70
2023-03-20T13:45:42.959Z,72.08
2023-03-20T13:48:25.551Z,72.53
2023-03-20T13:51:02.170Z,75.11
2023-03-20T13:53:38.169Z,74.54
2023-03-20T13:56:15.825Z,71.67
2023-03-20T13:58:53.661Z,71.21
2023-03-20T14:01:31.558Z,72.07
2023-03-20T14:04:09.788Z,73.51
2023-03-20T14:06:48.907Z,73.95
2023-03-20T14:09:25.956Z,73.35
2023-03-20T14:12:02.301Z,70.99
2023-03-20T14:14:41.715Z,70.64
2023-03-20T14:17:17.803Z,70.54
2023-03-20T14:19:52.623Z,69.84
2023-03-20T14:22:29.047Z,70.22
2023-03-20T14:25:06.788Z,72.02
2023-03-20T14:27:55.849Z,72.27
2023-03-20T14:30:39.007Z,71.18
2023-03-20T14:33:31.280Z,71.08
2023-03-20T14:36:18.815Z,71.04
2023-03-20T14:38:58.878Z,70.23
2023-03-20T14:41:36.790Z,69.61
2023-03-20T14:44:21.121Z,69.37
2023-03-20T14:46:56.378Z,66.58
2023-03-20T14:49:38.235Z,69.09
2023-03-20T14:52:15.289Z,68.54
2023-03-20T14:54:53.140Z,65.66
2023-03-20T14:57:32.685Z,61.01
2023-03-20T15:00:08.398Z,63.68
2023-03-20T15:02:41.085Z,65.27
2023-03-20T15:05:22.799Z,66.09
2023-03-20T15:07:57.580Z,65.81
2023-03-20T15:10:30.442Z,66.66
2023-03-20T15:13:04.389Z,66.43
2023-03-20T15:15:37.121Z,69.09
2023-03-20T15:18:13.484Z,66.43
2023-03-20T15:20:46.424Z,66.90
2023-03-20T15:23:20.626Z,66.44
2023-03-20T15:25:53.389Z,66.24
2023-03-20T15:28:27.249Z,68.53
2023-03-20T15:31:01.311Z,67.44
2023-03-20T15:33:35.347Z,68.00
2023-03-20T15:36:09.076Z,67.98
2023-03-20T15:38:44.827Z,68.91
2023-03-20T15:41:27.687Z,68.83
2023-03-20T15:44:04.297Z,67.02
2023-03-20T15:46:37.013Z,67.27
2023-03-20T15:49:17.867Z,66.01
2023-03-20T15:51:51.493Z,67.60
2023-03-20T15:54:26.255Z,66.12
2023-03-20T15:57:00.809Z,65.76
2023-03-20T15:59:35.233Z,67.34
2023-03-20T16:02:10.345Z,67.65
2023-03-20T16:04:47.061Z,67.18
2023-03-20T16:07:23.567Z,68.14
2023-03-20T16:09:57.847Z,65.54
2023-03-20T16:12:30.523Z,66.99
2023-03-20T16:15:04.973Z,67.34
2023-03-20T16:17:37.726Z,68.21
2023-03-20T16:20:14.341Z,66.49
2023-03-20T16:22:47.394Z,64.42
2023-03-20T16:25:21.533Z,66.22
2023-03-20T16:27:55.180Z,66.67
2023-03-20T16:30:31.484Z,66.31
2023-03-20T16:33:07.310Z,67.38
2023-03-20T16:35:41.400Z,67.78
2023-03-20T16:38:18.218Z,68.07
2023-03-20T16:40:54.976Z,68.46
2023-03-20T16:43:31.300Z,68.22
2023-03-20T16:46:05.139Z,68.34
2023-03-20T16:48:39.345Z,68.67
2023-03-20T16:51:17.589Z,69.30
2023-03-20T16:53:51.528Z,67.88
2023-03-20T16:56:28.637Z,69.11
2023-03-20T16:59:07.661Z,69.16
2023-03-20T17:01:43.177Z,69.36
2023-03-20T17:04:19.508Z,68.66
2023-03-20T17:06:54.590Z,67.97
2023-03-20T17:09:28.882Z,68.62
2023-03-20T17:12:05.806Z,68.11
2023-03-20T17:14:40.463Z,68.21
2023-03-20T17:17:13.981Z,68.16
2023-03-20T17:19:47.008Z,67.83
2023-03-20T17:22:20.751Z,67.99
2023-03-20T17:24:53.986Z,67.93
2023-03-20T17:27:28.397Z,68.09
2023-03-20T17:30:01.318Z,68.32
2023-03-20T17:32:34.182Z,68.38
2023-03-20T17:35:07.535Z,68.58
2023-03-20T17:37:40.298Z,68.90
2023-03-20T17:40:17.713Z,69.20
2023-03-20T17:42:51.861Z,69.36
2023-03-20T17:45:24.846Z,69.45
2023-03-20T17:47:57.484Z,69.64
2023-03-20T17:50:30.212Z,69.63
2023-03-20T17:53:02.872Z,69.80
2023-03-20T17:55:35.729Z,69.75
2023-03-20T17:58:11.577Z,69.86
2023-03-20T18:00:44.475Z,70.02
2023-03-20T18:03:18.202Z,70.05
2023-03-20T18:05:51.832Z,69.88
2023-03-20T18:08:24.580Z,69.46
2023-03-20T18:10:57.807Z,69.40
2023-03-20T18:13:32.369Z,69.56
2023-03-20T18:16:05.500Z,68.91
2023-03-20T18:18:38.287Z,69.06
2023-03-20T18:21:12.173Z,68.50
2023-03-20T18:23:45.354Z,68.99
2023-03-20T18:26:20.095Z,68.77
2023-03-20T18:28:55.321Z,68.64
2023-03-20T18:31:28.166Z,68.47
2023-03-20T18:34:00.857Z,68.88
2023-03-20T18:36:34.031Z,69.02
2023-03-20T18:39:06.895Z,68.97
2023-03-20T18:41:39.621Z,68.86
2023-03-20T18:44:13.958Z,69.52
2023-03-20T18:46:46.756Z,69.07
2023-03-20T18:49:20.343Z,69.41
2023-03-20T18:51:54.165Z,69.68
2023-03-20T18:54:26.908Z,69.72
2023-03-20T18:57:00.871Z,69.70
2023-03-20T18:59:34.924Z,69.85
2023-03-20T19:02:08.017Z,70.72
2023-03-20T19:04:40.693Z,70.65
2023-03-20T19:07:13.818Z,71.46
2023-03-20T19:09:46.484Z,71.13
2023-03-20T19:12:19.219Z,71.74
2023-03-20T19:14:53.387Z,72.15
2023-03-20T19:17:26.130Z,71.91
2023-03-20T19:19:58.876Z,72.28
2023-03-20T19:22:33.722Z,72.98
2023-03-20T19:25:06.971Z,73.14
2023-03-20T19:27:39.697Z,72.91
2023-03-20T19:30:24.001Z,73.46
2023-03-20T19:32:57.065Z,73.52
2023-03-20T19:38:23.229Z,73.84
2023-03-20T19:40:55.952Z,73.80
2023-03-20T19:43:29.280Z,73.62
2023-03-20T19:46:05.506Z,73.28
2023-03-20T19:48:49.575Z,73.20
2023-03-20T19:51:23.422Z,73.18
2023-03-20T19:53:56.338Z,73.30
2023-03-20T19:56:29.012Z,72.98
2023-03-20T19:59:01.816Z,73.33
2023-03-20T20:01:36.290Z,72.90
2023-03-20T20:04:09.169Z,73.36
2023-03-20T20:06:42.090Z,73.65
2023-03-20T20:09:15.323Z,73.67
2023-03-20T20:11:48.083Z,74.08
2023-03-20T20:14:23.604Z,73.96
2023-03-20T20:16:58.202Z,74.30
2023-03-20T20:19:30.990Z,74.14
2023-03-20T20:22:24.419Z,74.44
2023-03-20T20:24:57.807Z,74.08
2023-03-20T20:27:31.911Z,74.49
2023-03-20T20:30:05.977Z,74.18
2023-03-20T20:32:41.084Z,74.16
2023-03-20T20:35:40.693Z,74.46
2023-03-20T20:41:00.258Z,74.13
2023-03-20T20:44:06.710Z,74.18
2023-03-20T20:46:26.467Z,74.11
2023-03-20T20:49:16.295Z,74.17
2023-03-20T20:51:51.379Z,73.80
2023-03-20T20:54:24.362Z,74.08
2023-03-20T20:56:57.181Z,73.76
2023-03-20T20:59:30.037Z,74.05
2023-03-20T21:02:02.953Z,73.48
2023-03-20T21:04:37.291Z,73.92
2023-03-20T21:07:12.011Z,73.83
2023-03-20T21:09:44.825Z,73.36
2023-03-20T21:12:32.852Z,73.45
2023-03-20T21:15:08.505Z,73.55
2023-03-20T21:17:53.886Z,72.80
2023-03-20T21:20:34.354Z,73.66
2023-03-20T21:23:07.048Z,72.76
2023-03-20T21:25:41.812Z,73.72
2023-03-20T21:28:15.795Z,73.84
2023-03-20T21:31:12.657Z,73.74
2023-03-20T21:33:41.202Z,73.65
2023-03-20T21:36:15.568Z,73.52
2023-03-20T21:41:41.975Z,73.98
2023-03-20T21:44:19.796Z,73.96
2023-03-20T21:47:58.627Z,73.71
2023-03-20T21:50:41.907Z,74.36
2023-03-20T21:53:28.729Z,74.58
2023-03-20T21:56:31.079Z,74.42
2023-03-20T21:59:18.616Z,74.49
2023-03-20T22:11:09.567Z,74.04
2023-03-20T22:31:24.089Z,73.87
2023-03-20T22:34:10.535Z,73.67
2023-03-20T22:37:10.992Z,73.48
2023-03-20T22:45:01.701Z,73.29
2023-03-20T22:47:36.082Z,73.46
2023-03-20T22:50:09.337Z,73.40
2023-03-20T22:52:49.112Z,73.44
2023-03-20T22:55:23.150Z,72.81
2023-03-20T22:58:06.501Z,72.57
2023-03-20T23:00:42.160Z,72.47
2023-03-20T23:03:26.167Z,72.22
2023-03-20T23:06:07.200Z,72.35
2023-03-20T23:08:49.265Z,71.59
2023-03-20T23:11:27.853Z,71.13
2023-03-20T23:14:00.962Z,71.22
2023-03-20T23:16:35.378Z,71.55
2023-03-20T23:19:08.106Z,71.11
2023-03-20T23:21:40.892Z,70.79
2023-03-20T23:24:13.778Z,70.73
2023-03-20T23:26:46.490Z,70.45
2023-03-20T23:29:19.264Z,71.06
2023-03-20T23:31:53.401Z,70.51
2023-03-20T23:34:26.302Z,70.37
2023-03-20T23:36:59.326Z,70.49
2023-03-20T23:39:32.125Z,70.43
2023-03-20T23:42:17.417Z,70.63
2023-03-20T23:45:02.104Z,70.35
2023-03-20T23:47:44.733Z,70.77
2023-03-20T23:50:28.671Z,70.79
2023-03-20T23:53:13.808Z,70.46
2023-03-20T23:55:54.020Z,71.21
2023-03-20T23:58:27.509Z,71.19
